• Join FlightAware (Why Join?)
  • Login
  • US Flag 
06:11AM EST


 

Airport Tracker/Info


-or-


 

Live Flight TrackerFlight Track Log ✈ VH-YRE ✈ 18-Jun-2013 ✈ YRED / RCL - YCDR / CUD

Flight Track Log - Related Links

Times and Time Zones

All times are in EDT time to prevent confusion due to time zone crossing. See the VH-YRE flight status page for this flight to view local times or setup timezone preferences in your user account.

Time Position Orientation Groundspeed Altitude Reporting Facility
EDT Latitude Longitude Course Direction KTS MPH feet Rate Location/Type
04:45AM -27.1964 153.0516 80° East 69 79 1,100  Level Aus ATC (RADAR)
04:45AM -27.1931 153.0719 80° East 103 119 1,600 240 Climbing Aus ATC (RADAR)
04:47AM -27.2020 153.0580 234° Southwest 94 108 1,600  Level Aus ATC (RADAR)
04:47AM -27.1980 153.0797 78° East 94 108 1,600 420 Level Aus ATC (RADAR)
04:48AM -27.2115 153.0711 209° Southwest 61 70 2,400 720 Climbing Aus ATC (RADAR)
04:49AM -27.1973 153.0689 352° North 80 92 2,800 420 Climbing Aus ATC (RADAR)
04:50AM -27.2051 153.0909 112° Southeast 111 128 3,100 180 Climbing Aus ATC (RADAR)
04:50AM -27.2016 153.0726 282° West 108 124 3,100 360 Level Aus ATC (RADAR)
04:52AM -27.1637 153.0780 North 100 115 3,800 420 Climbing Aus ATC (RADAR)
04:52AM -27.1411 153.0804 North 105 121 4,000  Climbing Aus ATC (RADAR)
04:53AM -27.1074 153.0849 North 121 139 3,900 240 Descending Aus ATC (RADAR)
04:54AM -27.0894 153.0867 North 111 128 4,400 360 Climbing Aus ATC (RADAR)
04:55AM -27.0624 153.0874 North 111 128 4,500 60 Climbing Aus ATC (RADAR)
04:56AM -27.0398 153.0892 North 122 140 4,500  Level Aus ATC (RADAR)
04:57AM -27.0053 153.0932 North 126 145 4,500  Level Aus ATC (RADAR)
04:57AM -26.9762 153.0968 North 128 147 4,500  Level Aus ATC (RADAR)
04:58AM -26.9473 153.0967 360° North 123 142 4,500  Level Aus ATC (RADAR)
04:59AM -26.9243 153.0973 North 124 143 4,500  Level Aus ATC (RADAR)
05:00AM -26.8922 153.0977 North 126 145 4,500  Level Aus ATC (RADAR)
05:01AM -26.8631 153.0998 North 125 144 4,500 -300 Level Aus ATC (RADAR)
05:02AM -26.8146 153.1024 North 122 140 3,900 -480 Descending Aus ATC (RADAR)